createdAt,value
2018-03-14T00:02:03.922Z,3.40
2018-03-14T00:04:31.937Z,3.40
2018-03-14T00:06:59.515Z,3.40
2018-03-14T00:09:27.075Z,3.40
2018-03-14T00:11:56.353Z,3.40
2018-03-14T00:14:23.916Z,3.40
2018-03-14T00:16:51.481Z,3.40
2018-03-14T00:19:19.092Z,3.40
2018-03-14T00:21:46.651Z,3.40
2018-03-14T00:24:15.632Z,3.40
2018-03-14T00:26:43.233Z,3.40
2018-03-14T00:29:10.791Z,3.30
2018-03-14T00:31:39.583Z,3.30
2018-03-14T00:34:07.218Z,3.30
2018-03-14T00:36:34.792Z,3.30
2018-03-14T00:39:02.352Z,3.30
2018-03-14T00:41:29.961Z,3.30
2018-03-14T00:43:58.560Z,3.30
2018-03-14T00:46:26.532Z,3.30
2018-03-14T00:48:54.132Z,3.30
2018-03-14T00:51:22.721Z,3.30
2018-03-14T00:53:51.104Z,3.30
2018-03-14T00:56:18.668Z,3.30
2018-03-14T00:58:46.248Z,3.30
2018-03-14T01:01:13.829Z,3.30
2018-03-14T01:03:42.217Z,3.30
2018-03-14T01:06:10.271Z,3.30
2018-03-14T01:08:37.870Z,3.30
2018-03-14T01:11:05.447Z,3.30
2018-03-14T01:13:33.017Z,3.30
2018-03-14T01:16:00.576Z,3.30
2018-03-14T01:18:29.151Z,3.20
2018-03-14T01:20:56.887Z,3.20
2018-03-14T01:23:26.120Z,3.20
2018-03-14T01:25:54.968Z,3.20
2018-03-14T01:28:23.647Z,3.20
2018-03-14T01:30:51.256Z,3.20
2018-03-14T01:33:21.216Z,3.20
2018-03-14T01:35:48.819Z,3.20
2018-03-14T01:38:16.371Z,3.20
2018-03-14T01:40:44.046Z,3.20
2018-03-14T01:43:12.544Z,3.20
2018-03-14T01:45:40.268Z,3.20
2018-03-14T01:48:07.837Z,3.20
2018-03-14T01:50:35.443Z,3.20
2018-03-14T01:53:14.679Z,3.30
2018-03-14T01:55:42.268Z,3.20
2018-03-14T01:58:09.845Z,3.20
2018-03-14T02:00:37.423Z,3.20
2018-03-14T02:03:04.992Z,3.20
2018-03-14T02:05:32.579Z,3.20
2018-03-14T02:08:00.167Z,3.30
2018-03-14T02:10:27.744Z,3.30
2018-03-14T02:12:55.917Z,3.30
2018-03-14T02:15:24.203Z,3.30
2018-03-14T02:17:52.828Z,3.30
2018-03-14T02:20:20.383Z,3.30
2018-03-14T02:22:47.979Z,3.30
2018-03-14T02:25:16.238Z,3.30
2018-03-14T02:27:43.817Z,3.30
2018-03-14T02:30:11.373Z,3.30
2018-03-14T02:32:38.963Z,3.30
2018-03-14T02:35:07.281Z,3.30
2018-03-14T02:37:34.849Z,3.20
2018-03-14T02:40:03.396Z,3.20
2018-03-14T02:42:30.967Z,3.20
2018-03-14T02:44:58.550Z,3.20
2018-03-14T02:47:27.467Z,3.20
2018-03-14T02:49:55.025Z,3.20
2018-03-14T02:52:22.570Z,3.20
2018-03-14T02:54:51.085Z,3.20
2018-03-14T02:57:18.634Z,3.20
2018-03-14T02:59:46.197Z,3.20
2018-03-14T03:02:14.652Z,3.10
2018-03-14T03:04:43.920Z,3.10
2018-03-14T03:07:13.033Z,3.10
2018-03-14T03:09:40.629Z,3.10
2018-03-14T03:12:08.193Z,3.10
2018-03-14T03:14:36.377Z,3.10
2018-03-14T03:17:04.441Z,3.10
2018-03-14T03:19:32.970Z,3.10
2018-03-14T03:22:00.532Z,3.10
2018-03-14T03:24:29.380Z,3.10
2018-03-14T03:26:56.948Z,3.10
2018-03-14T03:29:25.768Z,3.00
2018-03-14T03:31:53.331Z,3.00
2018-03-14T03:34:22.025Z,3.00
2018-03-14T03:36:50.839Z,3.00
2018-03-14T03:39:18.409Z,3.00
2018-03-14T03:41:48.573Z,3.00
2018-03-14T03:44:16.180Z,3.00
2018-03-14T03:46:43.785Z,3.00
2018-03-14T03:49:11.333Z,3.00
2018-03-14T03:51:39.357Z,3.00
2018-03-14T03:54:06.921Z,3.00
2018-03-14T03:56:34.473Z,2.90
2018-03-14T03:59:02.049Z,2.90
2018-03-14T04:01:30.363Z,2.90
2018-03-14T04:03:58.890Z,2.90
2018-03-14T04:06:26.444Z,2.90
2018-03-14T04:08:55.158Z,2.90
2018-03-14T04:11:23.466Z,2.90
2018-03-14T04:13:52.189Z,2.80
2018-03-14T04:16:19.741Z,2.80
2018-03-14T04:18:49.194Z,2.80
2018-03-14T04:21:16.741Z,2.80
2018-03-14T04:23:45.233Z,2.80
2018-03-14T04:26:12.785Z,2.80
2018-03-14T04:28:41.100Z,2.80
2018-03-14T04:31:08.656Z,2.70
2018-03-14T04:33:36.197Z,2.70
2018-03-14T04:36:03.766Z,2.70
2018-03-14T04:38:31.324Z,2.70
2018-03-14T04:40:58.889Z,2.70
2018-03-14T04:43:26.492Z,2.70
2018-03-14T04:45:54.082Z,2.70
2018-03-14T04:48:22.134Z,2.70
2018-03-14T04:50:50.514Z,2.60
2018-03-14T04:53:18.846Z,2.60
2018-03-14T04:55:47.094Z,2.60
2018-03-14T04:58:14.657Z,2.60
2018-03-14T05:00:42.205Z,2.60
2018-03-14T05:03:09.779Z,2.60
2018-03-14T05:05:37.337Z,2.60
2018-03-14T05:08:04.905Z,2.60
2018-03-14T05:10:32.462Z,2.60
2018-03-14T05:13:07.450Z,2.60
2018-03-14T05:15:34.996Z,2.60
2018-03-14T05:18:02.582Z,2.60
2018-03-14T05:20:30.184Z,2.60
2018-03-14T05:22:57.752Z,2.60
2018-03-14T05:25:25.301Z,2.60
2018-03-14T05:27:52.862Z,2.60
2018-03-14T05:30:20.406Z,2.60
2018-03-14T05:32:47.971Z,2.60
2018-03-14T05:35:16.180Z,2.60
2018-03-14T05:37:43.768Z,2.60
2018-03-14T05:40:11.364Z,2.60
2018-03-14T05:42:38.909Z,2.50
2018-03-14T05:45:06.473Z,2.50
2018-03-14T05:47:34.051Z,2.50
2018-03-14T05:50:02.388Z,2.50
2018-03-14T05:52:30.613Z,2.50
2018-03-14T05:55:00.011Z,2.50
2018-03-14T05:57:28.345Z,2.50
2018-03-14T05:59:55.961Z,2.50
2018-03-14T06:02:23.545Z,2.50
2018-03-14T06:04:51.114Z,2.50
2018-03-14T06:07:18.669Z,2.50
2018-03-14T06:09:49.061Z,2.60
2018-03-14T06:12:16.641Z,2.60
2018-03-14T06:14:44.208Z,2.60
2018-03-14T06:17:11.777Z,2.60
2018-03-14T06:19:40.398Z,2.60
2018-03-14T06:22:07.994Z,2.60
2018-03-14T06:24:35.583Z,2.60
2018-03-14T06:27:03.147Z,2.60
2018-03-14T06:29:31.475Z,2.70
2018-03-14T06:31:59.037Z,2.60
2018-03-14T06:34:26.593Z,2.70
2018-03-14T06:36:54.161Z,2.70
2018-03-14T06:39:21.740Z,2.70
2018-03-14T06:41:50.209Z,2.70
2018-03-14T06:44:19.307Z,2.80
2018-03-14T06:46:47.685Z,2.80
2018-03-14T06:49:15.259Z,2.80
2018-03-14T06:51:42.797Z,2.90
2018-03-14T06:54:10.914Z,2.90
2018-03-14T06:56:39.360Z,2.90
2018-03-14T06:59:18.771Z,2.90
2018-03-14T07:01:58.149Z,2.90
2018-03-14T07:04:37.568Z,2.90
2018-03-14T07:07:06.303Z,3.00
2018-03-14T07:09:34.728Z,3.00
2018-03-14T07:12:02.282Z,3.00
2018-03-14T07:14:30.650Z,3.00
2018-03-14T07:16:59.037Z,3.00
2018-03-14T07:19:26.624Z,3.00
2018-03-14T07:21:54.819Z,3.00
2018-03-14T07:24:22.389Z,3.10
2018-03-14T07:26:49.936Z,3.10
2018-03-14T07:29:19.945Z,3.10
2018-03-14T07:31:47.489Z,3.10
2018-03-14T07:34:15.065Z,3.10
2018-03-14T07:36:42.613Z,3.10
2018-03-14T07:39:10.176Z,3.10
2018-03-14T07:41:37.724Z,3.10
2018-03-14T07:44:05.280Z,3.10
2018-03-14T07:46:35.936Z,3.10
2018-03-14T07:49:03.503Z,3.10
2018-03-14T07:51:31.046Z,3.10
2018-03-14T07:53:58.642Z,3.10
2018-03-14T07:56:26.184Z,3.10
2018-03-14T07:58:55.022Z,3.10
2018-03-14T08:01:22.569Z,3.10
2018-03-14T08:04:16.959Z,3.10
2018-03-14T08:06:44.510Z,3.10
2018-03-14T08:09:12.059Z,3.10
2018-03-14T08:11:39.617Z,3.10
2018-03-14T08:14:14.606Z,3.10
2018-03-14T08:16:42.204Z,3.10
2018-03-14T08:19:09.754Z,3.00
2018-03-14T08:21:44.989Z,3.00
2018-03-14T08:24:12.561Z,3.00
2018-03-14T08:26:40.145Z,3.00
2018-03-14T08:29:07.688Z,3.10
2018-03-14T08:31:38.605Z,3.10
2018-03-14T08:37:09.091Z,3.10
2018-03-14T08:39:36.573Z,3.10
2018-03-14T08:42:04.147Z,3.20
2018-03-14T08:44:31.693Z,3.10
2018-03-14T08:46:59.248Z,3.20
2018-03-14T08:49:27.829Z,3.20
2018-03-14T08:52:02.114Z,3.10
2018-03-14T08:54:47.117Z,3.00
2018-03-14T08:57:15.023Z,2.90
2018-03-14T08:59:42.596Z,2.90
2018-03-14T09:02:10.933Z,2.90
2018-03-14T09:04:38.498Z,2.90
2018-03-14T09:07:06.813Z,2.90
2018-03-14T09:09:36.478Z,2.90
2018-03-14T09:12:19.547Z,2.90
2018-03-14T09:14:54.085Z,3.00
2018-03-14T09:17:21.675Z,3.00
2018-03-14T09:19:49.276Z,3.00
2018-03-14T09:22:16.868Z,3.00
2018-03-14T09:24:48.563Z,3.10
2018-03-14T09:27:16.397Z,3.10
2018-03-14T09:29:43.954Z,3.10
2018-03-14T09:32:18.537Z,3.20
2018-03-14T09:37:39.270Z,3.20
2018-03-14T09:40:31.822Z,3.30
2018-03-14T09:42:59.409Z,3.30
2018-03-14T09:45:26.968Z,3.30
2018-03-14T09:47:55.871Z,3.30
2018-03-14T09:50:23.454Z,3.30
2018-03-14T09:52:51.010Z,3.30
2018-03-14T09:55:18.573Z,3.30
2018-03-14T09:57:46.117Z,3.30
2018-03-14T10:00:13.686Z,3.30
2018-03-14T10:02:41.994Z,3.30
2018-03-14T10:05:17.413Z,3.30
2018-03-14T10:07:46.542Z,3.30
2018-03-14T10:10:14.139Z,3.30
2018-03-14T10:12:41.689Z,3.30
2018-03-14T10:15:09.278Z,3.30
2018-03-14T10:17:36.825Z,3.30
2018-03-14T10:20:04.371Z,3.30
2018-03-14T10:22:31.933Z,3.30
2018-03-14T10:24:59.482Z,3.30
2018-03-14T10:27:27.055Z,3.20
2018-03-14T10:29:55.885Z,3.30
2018-03-14T10:32:23.449Z,3.20
2018-03-14T10:34:50.992Z,3.30
2018-03-14T10:37:19.318Z,3.30
2018-03-14T10:39:47.469Z,3.20
2018-03-14T10:42:16.141Z,3.30
2018-03-14T10:44:43.693Z,3.40
2018-03-14T10:47:11.265Z,3.40
2018-03-14T10:49:39.576Z,3.60
2018-03-14T10:52:07.901Z,3.60
2018-03-14T10:54:37.338Z,3.60
2018-03-14T10:57:04.929Z,3.70
2018-03-14T10:59:32.476Z,3.60
2018-03-14T11:05:04.674Z,3.50
2018-03-14T11:07:32.233Z,3.50
2018-03-14T11:10:00.580Z,3.50
2018-03-14T11:12:28.161Z,3.60
2018-03-14T11:14:55.708Z,3.60
2018-03-14T11:17:23.262Z,3.70
2018-03-14T11:19:50.829Z,3.70
2018-03-14T11:22:20.071Z,3.70
2018-03-14T11:24:47.632Z,3.70
2018-03-14T11:27:16.474Z,3.70
2018-03-14T11:29:45.730Z,3.70
2018-03-14T11:32:13.282Z,3.80
2018-03-14T11:34:40.848Z,3.80
2018-03-14T11:37:09.157Z,3.80
2018-03-14T11:39:36.721Z,3.80
2018-03-14T11:42:04.259Z,3.90
2018-03-14T11:44:35.625Z,3.90
2018-03-14T11:47:03.178Z,3.90
2018-03-14T11:49:31.504Z,3.90
2018-03-14T11:52:00.334Z,3.90
2018-03-14T11:54:27.918Z,3.80
2018-03-14T11:56:55.470Z,3.70
2018-03-14T11:59:23.023Z,3.70
2018-03-14T12:01:51.877Z,3.70
2018-03-14T12:04:19.429Z,3.70
2018-03-14T12:06:47.761Z,3.70
2018-03-14T12:09:17.112Z,3.60
2018-03-14T12:11:45.512Z,3.60
2018-03-14T12:14:13.062Z,3.60
2018-03-14T12:16:40.628Z,3.70
2018-03-14T12:19:09.903Z,3.80
2018-03-14T12:21:37.463Z,3.80
2018-03-14T12:24:06.021Z,3.70
2018-03-14T12:26:33.581Z,3.70
2018-03-14T12:29:01.123Z,3.70
2018-03-14T12:31:28.689Z,3.70
2018-03-14T12:33:56.232Z,3.70
2018-03-14T12:36:23.793Z,3.70
2018-03-14T12:38:51.346Z,3.70
2018-03-14T12:41:18.886Z,3.70
2018-03-14T12:43:46.467Z,3.60
2018-03-14T12:46:14.019Z,3.60
2018-03-14T12:48:41.577Z,3.60
2018-03-14T12:51:11.800Z,3.70
2018-03-14T12:53:39.364Z,3.60
2018-03-14T12:56:08.434Z,3.70
2018-03-14T12:58:35.993Z,3.70
2018-03-14T13:01:03.538Z,3.60
2018-03-14T13:03:31.101Z,3.60
2018-03-14T13:05:59.408Z,3.50
2018-03-14T13:08:28.245Z,3.50
2018-03-14T13:10:55.785Z,3.50
2018-03-14T13:13:23.345Z,3.50
2018-03-14T13:15:52.693Z,2.90
2018-03-14T13:18:20.277Z,3.50
2018-03-14T13:20:47.817Z,3.50
2018-03-14T13:23:16.953Z,3.50
2018-03-14T13:25:45.433Z,3.60
2018-03-14T13:28:12.976Z,3.60
2018-03-14T13:30:40.545Z,3.50
2018-03-14T13:33:08.091Z,3.60
2018-03-14T13:35:35.652Z,3.50
2018-03-14T13:38:03.216Z,3.60
2018-03-14T13:40:31.543Z,3.50
2018-03-14T13:42:59.873Z,3.50
2018-03-14T13:45:27.437Z,3.50
2018-03-14T13:47:55.024Z,3.50
2018-03-14T13:50:25.197Z,3.40
2018-03-14T13:52:53.506Z,3.40
2018-03-14T13:55:21.069Z,3.40
2018-03-14T13:57:48.615Z,3.40
2018-03-14T14:00:16.629Z,3.40
2018-03-14T14:02:44.943Z,3.30
2018-03-14T14:05:12.525Z,3.30
2018-03-14T14:07:40.074Z,3.30
2018-03-14T14:10:07.615Z,3.30
2018-03-14T14:12:35.176Z,3.30
2018-03-14T14:15:02.720Z,3.30
2018-03-14T14:17:31.761Z,3.30
2018-03-14T14:19:59.303Z,3.30
2018-03-14T14:22:28.145Z,3.30
2018-03-14T14:24:55.732Z,3.30
2018-03-14T14:27:23.271Z,3.30
2018-03-14T14:29:50.816Z,3.30
2018-03-14T14:32:20.305Z,3.20
2018-03-14T14:34:47.855Z,3.20
2018-03-14T14:37:15.413Z,3.20
2018-03-14T14:39:43.719Z,3.10
2018-03-14T14:42:11.302Z,3.10
2018-03-14T14:44:38.861Z,3.10
2018-03-14T14:47:07.186Z,3.10
2018-03-14T14:49:34.741Z,3.10
2018-03-14T14:52:02.685Z,3.10
2018-03-14T14:54:30.290Z,3.20
2018-03-14T14:56:58.492Z,3.20
2018-03-14T14:59:26.318Z,3.20
2018-03-14T15:01:54.892Z,3.20
2018-03-14T15:04:24.237Z,3.20
2018-03-14T15:06:53.807Z,3.20
2018-03-14T15:09:22.461Z,3.20
2018-03-14T15:11:50.291Z,3.20
2018-03-14T15:14:18.161Z,3.20
2018-03-14T15:16:46.003Z,3.20
2018-03-14T15:19:14.051Z,3.20
2018-03-14T15:24:16.619Z,3.20
2018-03-14T15:26:46.336Z,3.10
2018-03-14T15:29:14.133Z,3.10
2018-03-14T15:31:41.895Z,3.10
2018-03-14T15:34:11.167Z,3.00
2018-03-14T15:36:39.893Z,3.00
2018-03-14T15:39:09.318Z,3.00
2018-03-14T15:41:37.382Z,3.00
2018-03-14T15:44:05.239Z,3.00
2018-03-14T15:46:33.402Z,3.00
2018-03-14T15:49:02.010Z,3.00
2018-03-14T15:51:31.556Z,3.00
2018-03-14T15:53:59.415Z,3.00
2018-03-14T15:56:27.241Z,2.90
2018-03-14T15:58:54.886Z,3.00
2018-03-14T16:01:23.217Z,3.00
2018-03-14T16:03:52.124Z,2.90
2018-03-14T16:06:21.083Z,3.00
2018-03-14T16:08:48.631Z,2.90
2018-03-14T16:11:16.588Z,2.90
2018-03-14T16:13:44.130Z,2.90
2018-03-14T16:16:11.693Z,2.90
2018-03-14T16:18:39.242Z,2.90
2018-03-14T16:21:06.854Z,2.90
2018-03-14T16:23:34.412Z,2.90
2018-03-14T16:26:02.753Z,2.90
2018-03-14T16:28:30.785Z,2.80
2018-03-14T16:30:58.638Z,2.80
2018-03-14T16:33:26.202Z,2.80
2018-03-14T16:35:53.745Z,2.80
2018-03-14T16:38:21.326Z,2.90
2018-03-14T16:40:49.705Z,2.90
2018-03-14T16:43:17.297Z,2.90
2018-03-14T16:45:44.922Z,2.80
2018-03-14T16:48:12.517Z,2.80
2018-03-14T16:50:40.092Z,2.90
2018-03-14T16:53:07.657Z,2.80
2018-03-14T16:55:35.249Z,2.80
2018-03-14T16:58:02.808Z,2.80
2018-03-14T17:00:30.793Z,2.80
2018-03-14T17:02:58.944Z,2.80
2018-03-14T17:05:27.056Z,2.80
2018-03-14T17:07:55.164Z,2.80
2018-03-14T17:10:24.367Z,2.80
2018-03-14T17:12:52.045Z,2.80
2018-03-14T17:15:21.161Z,2.70
2018-03-14T17:17:48.772Z,2.70
2018-03-14T17:20:17.084Z,2.70
2018-03-14T17:22:44.652Z,2.70
2018-03-14T17:25:12.265Z,2.70
2018-03-14T17:27:39.848Z,2.70
2018-03-14T17:30:07.393Z,2.70
2018-03-14T17:32:34.941Z,2.60
2018-03-14T17:35:02.499Z,2.70
2018-03-14T17:37:30.616Z,2.70
2018-03-14T17:39:58.184Z,2.70
2018-03-14T17:42:27.605Z,2.70
2018-03-14T17:44:55.170Z,2.70
2018-03-14T17:47:22.707Z,2.70
2018-03-14T17:49:51.031Z,2.60
2018-03-14T17:52:19.799Z,2.60
2018-03-14T17:54:48.119Z,2.60
2018-03-14T17:57:16.765Z,2.60
2018-03-14T17:59:44.324Z,2.60
2018-03-14T18:02:11.883Z,2.60
2018-03-14T18:04:39.432Z,2.60
2018-03-14T18:07:08.173Z,2.60
2018-03-14T18:09:35.754Z,2.60
2018-03-14T18:12:04.056Z,2.50
2018-03-14T18:14:32.370Z,2.50
2018-03-14T18:16:59.908Z,2.50
2018-03-14T18:19:27.481Z,2.50
2018-03-14T18:21:55.783Z,2.50
2018-03-14T18:24:24.868Z,2.50
2018-03-14T18:26:53.200Z,2.40
2018-03-14T18:29:20.732Z,2.40
2018-03-14T18:31:49.056Z,2.40
2018-03-14T18:34:18.192Z,2.40
2018-03-14T18:36:45.743Z,2.40
2018-03-14T18:39:15.201Z,2.40
2018-03-14T18:41:42.767Z,2.30
2018-03-14T18:44:17.452Z,2.30
2018-03-14T18:46:45.003Z,2.30
2018-03-14T18:49:13.294Z,2.30
2018-03-14T18:51:47.630Z,2.20
2018-03-14T18:54:15.187Z,2.20
2018-03-14T18:56:42.749Z,2.20
2018-03-14T18:59:10.280Z,2.20
2018-03-14T19:01:37.840Z,2.20
2018-03-14T19:04:05.387Z,2.20
2018-03-14T19:06:33.700Z,2.10
2018-03-14T19:09:01.371Z,2.10
2018-03-14T19:11:28.951Z,2.10
2018-03-14T19:13:56.488Z,2.10
2018-03-14T19:16:25.709Z,2.10
2018-03-14T19:18:53.272Z,2.10
2018-03-14T19:21:21.568Z,2.00
2018-03-14T19:23:50.688Z,2.00
2018-03-14T19:26:18.226Z,2.00
2018-03-14T19:28:45.785Z,2.00
2018-03-14T19:31:13.320Z,2.00
2018-03-14T19:33:40.921Z,1.90
2018-03-14T19:36:09.953Z,1.90
2018-03-14T19:38:38.465Z,1.90
2018-03-14T19:41:08.189Z,1.90
2018-03-14T19:43:41.014Z,1.90
2018-03-14T19:46:12.724Z,1.90
2018-03-14T19:48:41.263Z,1.90
2018-03-14T19:51:08.813Z,1.90
2018-03-14T19:54:16.301Z,1.90
2018-03-14T19:56:43.868Z,1.80
2018-03-14T19:59:11.411Z,1.90
2018-03-14T20:01:38.989Z,1.80
2018-03-14T20:04:08.375Z,1.90
2018-03-14T20:06:35.908Z,1.90
2018-03-14T20:09:03.495Z,1.90
2018-03-14T20:11:31.023Z,1.90
2018-03-14T20:13:59.014Z,1.90
2018-03-14T20:16:26.584Z,1.90
2018-03-14T20:18:54.145Z,1.90
2018-03-14T20:21:21.695Z,1.90
2018-03-14T20:23:49.732Z,1.90
2018-03-14T20:26:17.403Z,1.90
2018-03-14T20:28:45.900Z,1.80
2018-03-14T20:31:14.239Z,1.80
2018-03-14T20:33:41.853Z,1.80
2018-03-14T20:36:17.860Z,1.80
2018-03-14T20:38:45.395Z,1.80
2018-03-14T20:41:12.949Z,1.80
2018-03-14T20:43:40.500Z,1.80
2018-03-14T20:46:08.068Z,1.80
2018-03-14T20:48:36.000Z,1.80
2018-03-14T20:51:04.471Z,1.80
2018-03-14T20:53:32.033Z,1.80
2018-03-14T20:55:59.692Z,1.80
2018-03-14T20:58:28.592Z,1.80
2018-03-14T21:00:56.144Z,1.70
2018-03-14T21:03:23.740Z,1.70
2018-03-14T21:05:51.283Z,1.70
2018-03-14T21:08:20.571Z,1.70
2018-03-14T21:10:48.879Z,1.70
2018-03-14T21:13:19.042Z,1.70
2018-03-14T21:15:47.068Z,1.70
2018-03-14T21:18:14.620Z,1.70
2018-03-14T21:20:42.175Z,1.70
2018-03-14T21:23:11.024Z,1.70
2018-03-14T21:25:39.327Z,1.70
2018-03-14T21:28:07.663Z,1.60
2018-03-14T21:30:39.151Z,1.60
2018-03-14T21:33:06.721Z,1.70
2018-03-14T21:35:34.286Z,1.70
2018-03-14T21:38:05.321Z,1.70
2018-03-14T21:40:33.490Z,1.70
2018-03-14T21:43:01.062Z,1.70
2018-03-14T21:45:28.624Z,1.70
2018-03-14T21:47:56.168Z,1.70
2018-03-14T21:50:24.493Z,1.70
2018-03-14T21:52:55.434Z,1.70
2018-03-14T21:55:40.710Z,1.70
2018-03-14T21:58:08.256Z,1.70
2018-03-14T22:00:35.828Z,1.70
2018-03-14T22:03:03.368Z,1.70
2018-03-14T22:05:30.957Z,1.60
2018-03-14T22:07:59.681Z,1.60
2018-03-14T22:10:29.001Z,1.60
2018-03-14T22:12:57.312Z,1.60
2018-03-14T22:15:24.877Z,1.60
2018-03-14T22:17:52.422Z,1.60
2018-03-14T22:20:21.297Z,1.60
2018-03-14T22:22:48.847Z,1.60
2018-03-14T22:25:16.415Z,1.60
2018-03-14T22:27:44.098Z,1.60
2018-03-14T22:30:11.660Z,1.50
2018-03-14T22:32:40.633Z,1.50
2018-03-14T22:35:08.198Z,1.50
2018-03-14T22:37:36.508Z,1.50
2018-03-14T22:40:04.093Z,1.50
2018-03-14T22:42:31.641Z,1.50
2018-03-14T22:44:59.188Z,1.50
2018-03-14T22:47:28.650Z,1.50
2018-03-14T22:49:56.193Z,1.60
2018-03-14T22:52:24.520Z,1.50
2018-03-14T22:54:53.037Z,1.50
2018-03-14T22:57:20.622Z,1.50
2018-03-14T22:59:48.173Z,1.50
2018-03-14T23:02:17.653Z,1.50
2018-03-14T23:04:45.193Z,1.50
2018-03-14T23:07:15.054Z,1.50
2018-03-14T23:09:42.618Z,1.50
2018-03-14T23:12:10.166Z,1.50
2018-03-14T23:14:38.499Z,1.50
2018-03-14T23:17:06.041Z,1.50
2018-03-14T23:19:35.538Z,1.50
2018-03-14T23:22:03.086Z,1.50
2018-03-14T23:24:30.653Z,1.50
2018-03-14T23:26:58.201Z,1.50
2018-03-14T23:29:25.785Z,1.50
2018-03-14T23:31:53.334Z,1.50
2018-03-14T23:34:22.597Z,1.50
2018-03-14T23:36:50.165Z,1.50
2018-03-14T23:39:17.709Z,1.40
2018-03-14T23:41:47.987Z,1.40
2018-03-14T23:44:15.558Z,1.50
2018-03-14T23:46:43.340Z,1.50
2018-03-14T23:49:11.678Z,1.50
2018-03-14T23:51:39.249Z,1.50
2018-03-14T23:54:08.137Z,1.50
2018-03-14T23:56:35.742Z,1.50
2018-03-14T23:59:03.280Z,1.50
